createdAt,value
2019-03-23T00:01:33.740Z,4.53
2019-03-23T00:04:40.567Z,4.43
2019-03-23T00:07:47.689Z,4.51
2019-03-23T00:10:54.473Z,4.48
2019-03-23T00:14:01.307Z,4.47
2019-03-23T00:17:08.246Z,4.51
2019-03-23T00:20:15.132Z,4.52
2019-03-23T00:23:22.044Z,4.55
2019-03-23T00:26:28.941Z,4.47
2019-03-23T00:29:36.929Z,4.11
2019-03-23T00:32:43.800Z,4.50
2019-03-23T00:35:50.647Z,4.49
2019-03-23T00:38:57.727Z,4.56
2019-03-23T00:42:04.673Z,4.58
2019-03-23T00:45:11.650Z,4.51
2019-03-23T00:48:18.458Z,4.44
2019-03-23T00:51:25.420Z,4.54
2019-03-23T00:54:33.451Z,4.62
2019-03-23T00:57:40.771Z,4.53
2019-03-23T01:00:48.146Z,4.55
2019-03-23T01:03:55.036Z,4.63
2019-03-23T01:07:02.036Z,4.54
2019-03-23T01:10:10.193Z,4.52
2019-03-23T01:13:17.053Z,4.56
2019-03-23T01:16:24.208Z,4.61
2019-03-23T01:19:31.098Z,4.56
2019-03-23T01:22:38.016Z,4.66
2019-03-23T01:25:45.956Z,4.62
2019-03-23T01:28:53.077Z,4.64
2019-03-23T01:32:00.014Z,4.65
2019-03-23T01:35:07.806Z,4.67
2019-03-23T01:38:14.573Z,4.61
2019-03-23T01:41:22.344Z,4.62
2019-03-23T01:44:30.123Z,4.26
2019-03-23T01:47:37.127Z,4.66
2019-03-23T01:50:43.992Z,4.64
2019-03-23T01:53:50.966Z,4.67
2019-03-23T01:56:58.110Z,4.68
2019-03-23T02:00:06.306Z,4.73
2019-03-23T02:03:13.309Z,4.69
2019-03-23T02:06:20.438Z,4.77
2019-03-23T02:09:27.329Z,4.74
2019-03-23T02:12:34.710Z,4.84
2019-03-23T02:15:41.487Z,4.88
2019-03-23T02:18:48.416Z,4.80
2019-03-23T02:21:55.326Z,4.86
2019-03-23T02:25:02.657Z,4.90
2019-03-23T02:28:09.505Z,5.00
2019-03-23T02:31:16.461Z,5.01
2019-03-23T02:34:23.358Z,5.01
2019-03-23T02:37:30.262Z,5.00
2019-03-23T02:40:37.140Z,4.96
2019-03-23T02:43:44.111Z,5.01
2019-03-23T02:46:51.137Z,5.00
2019-03-23T02:49:58.437Z,5.08
2019-03-23T02:53:05.302Z,5.14
2019-03-23T02:56:12.300Z,5.16
2019-03-23T02:59:19.323Z,5.17
2019-03-23T03:02:26.646Z,5.15
2019-03-23T03:05:34.757Z,5.29
2019-03-23T03:08:41.751Z,5.23
2019-03-23T03:11:48.598Z,5.22
2019-03-23T03:14:55.615Z,5.33
2019-03-23T03:18:02.497Z,5.27
2019-03-23T03:21:09.438Z,5.27
2019-03-23T03:24:16.393Z,5.29
2019-03-23T03:27:23.383Z,5.33
2019-03-23T03:30:30.260Z,5.39
2019-03-23T03:33:37.073Z,5.37
2019-03-23T03:36:44.085Z,5.35
2019-03-23T03:39:51.114Z,5.34
2019-03-23T03:42:58.283Z,5.32
2019-03-23T03:46:05.285Z,5.33
2019-03-23T03:49:13.119Z,5.33
2019-03-23T03:52:21.022Z,5.35
2019-03-23T03:55:27.825Z,5.34
2019-03-23T03:58:34.899Z,5.37
2019-03-23T04:01:41.745Z,5.30
2019-03-23T04:04:49.313Z,5.32
2019-03-23T04:08:09.889Z,5.28
2019-03-23T04:11:04.824Z,5.33
2019-03-23T04:14:11.817Z,5.36
2019-03-23T04:17:19.094Z,5.37
2019-03-23T04:20:25.955Z,5.41
2019-03-23T04:23:32.911Z,5.41
2019-03-23T04:26:39.875Z,5.45
2019-03-23T04:29:46.795Z,5.51
2019-03-23T04:32:53.647Z,5.51
2019-03-23T04:36:00.853Z,5.52
2019-03-23T04:39:08.295Z,5.57
2019-03-23T04:42:15.336Z,5.61
2019-03-23T04:45:22.124Z,5.61
2019-03-23T04:48:29.049Z,5.70
2019-03-23T04:51:36.025Z,5.64
2019-03-23T04:54:43.178Z,5.71
2019-03-23T04:57:50.086Z,5.80
2019-03-23T05:00:57.487Z,5.74
2019-03-23T05:04:04.475Z,5.79
2019-03-23T05:07:12.619Z,5.86
2019-03-23T05:10:19.419Z,5.86
2019-03-23T05:13:26.341Z,5.82
2019-03-23T05:16:33.261Z,5.86
2019-03-23T05:19:40.398Z,5.83
2019-03-23T05:22:47.331Z,5.93
2019-03-23T05:25:54.245Z,5.98
2019-03-23T05:29:01.080Z,5.94
2019-03-23T05:32:08.413Z,6.06
2019-03-23T05:35:15.277Z,6.02
2019-03-23T05:38:22.145Z,6.00
2019-03-23T05:41:30.884Z,5.96
2019-03-23T05:44:40.075Z,6.09
2019-03-23T05:47:46.965Z,6.05
2019-03-23T05:50:54.005Z,6.08
2019-03-23T05:54:01.027Z,6.11
2019-03-23T05:57:08.786Z,6.19
2019-03-23T06:00:18.541Z,6.14
2019-03-23T06:03:25.343Z,6.20
2019-03-23T06:06:32.297Z,6.23
2019-03-23T06:09:40.810Z,6.21
2019-03-23T06:12:48.097Z,6.22
2019-03-23T06:15:55.299Z,5.92
2019-03-23T06:19:02.371Z,6.38
2019-03-23T06:22:10.102Z,6.36
2019-03-23T06:25:16.940Z,6.39
2019-03-23T06:28:23.960Z,6.41
2019-03-23T06:31:31.156Z,6.44
2019-03-23T06:34:38.168Z,6.45
2019-03-23T06:37:46.220Z,6.43
2019-03-23T06:40:55.138Z,6.41
2019-03-23T06:44:02.180Z,6.32
2019-03-23T06:47:09.980Z,6.46
2019-03-23T06:50:16.864Z,6.55
2019-03-23T06:53:23.819Z,6.42
2019-03-23T06:56:30.806Z,6.48
2019-03-23T06:59:37.795Z,6.53
2019-03-23T07:02:44.668Z,6.55
2019-03-23T07:05:51.519Z,6.64
2019-03-23T07:09:00.562Z,6.65
2019-03-23T07:12:08.003Z,6.71
2019-03-23T07:15:20.276Z,6.61
2019-03-23T07:18:24.010Z,6.62
2019-03-23T07:21:34.418Z,6.70
2019-03-23T07:24:45.257Z,6.58
2019-03-23T07:27:52.191Z,6.59
2019-03-23T07:30:59.238Z,6.66
2019-03-23T07:34:06.329Z,6.72
2019-03-23T07:37:13.506Z,6.71
2019-03-23T07:40:22.055Z,6.79
2019-03-23T07:43:29.035Z,6.92
2019-03-23T07:46:36.061Z,6.56
2019-03-23T07:49:43.088Z,6.91
2019-03-23T07:52:50.102Z,6.98
2019-03-23T07:55:58.757Z,6.99
2019-03-23T07:59:07.552Z,6.89
2019-03-23T08:02:14.754Z,7.05
2019-03-23T08:05:23.162Z,7.12
2019-03-23T08:08:30.238Z,7.01
2019-03-23T08:11:37.282Z,7.04
2019-03-23T08:14:45.454Z,7.10
2019-03-23T08:17:52.266Z,7.08
2019-03-23T08:21:00.118Z,7.16
2019-03-23T08:24:07.296Z,7.17
2019-03-23T08:27:18.846Z,7.26
2019-03-23T08:30:27.239Z,7.34
2019-03-23T08:33:34.888Z,7.37
2019-03-23T08:36:41.874Z,7.34
2019-03-23T08:39:51.451Z,7.40
2019-03-23T08:42:58.683Z,7.49
2019-03-23T08:46:10.707Z,7.58
2019-03-23T08:49:19.134Z,7.58
2019-03-23T08:52:26.250Z,7.55
2019-03-23T08:55:36.088Z,7.63
2019-03-23T08:58:41.074Z,7.72
2019-03-23T09:01:48.133Z,7.88
2019-03-23T09:04:55.156Z,7.91
2019-03-23T09:08:03.434Z,8.06
2019-03-23T09:11:20.159Z,8.02
2019-03-23T09:14:19.188Z,7.97
2019-03-23T09:17:26.334Z,8.05
2019-03-23T09:20:33.209Z,8.25
2019-03-23T09:23:40.357Z,8.35
2019-03-23T09:26:47.380Z,8.40
2019-03-23T09:29:54.562Z,8.96
2019-03-23T09:33:01.513Z,9.27
2019-03-23T09:36:08.378Z,9.61
2019-03-23T09:39:15.345Z,10.00
2019-03-23T09:42:22.463Z,10.15
2019-03-23T09:45:29.371Z,9.79
2019-03-23T09:48:37.576Z,9.62
2019-03-23T09:51:45.476Z,9.44
2019-03-23T09:54:52.777Z,9.93
2019-03-23T09:57:59.651Z,10.18
2019-03-23T10:01:07.686Z,10.24
2019-03-23T10:04:14.630Z,10.78
2019-03-23T10:07:21.537Z,11.69
2019-03-23T10:10:28.422Z,12.31
2019-03-23T10:13:36.162Z,12.66
2019-03-23T10:16:43.124Z,12.85
2019-03-23T10:19:51.657Z,12.77
2019-03-23T10:22:58.479Z,13.04
2019-03-23T10:26:06.565Z,13.42
2019-03-23T10:29:14.656Z,14.20
2019-03-23T10:32:21.999Z,13.89
2019-03-23T10:35:29.397Z,14.60
2019-03-23T10:38:42.367Z,13.69
2019-03-23T10:41:52.022Z,14.13
2019-03-23T10:44:59.308Z,14.28
2019-03-23T10:48:06.264Z,14.56
2019-03-23T10:51:14.786Z,14.72
2019-03-23T10:54:21.761Z,15.24
2019-03-23T10:57:29.375Z,15.46
2019-03-23T11:00:36.605Z,15.77
2019-03-23T11:03:43.485Z,15.05
2019-03-23T11:06:50.978Z,14.94
2019-03-23T11:10:00.717Z,15.72
2019-03-23T11:13:09.185Z,16.06
2019-03-23T11:16:16.246Z,15.99
2019-03-23T11:19:23.189Z,16.22
2019-03-23T11:22:32.283Z,17.01
2019-03-23T11:25:39.152Z,16.51
2019-03-23T11:28:46.468Z,16.76
2019-03-23T11:31:53.426Z,16.45
2019-03-23T11:35:00.605Z,17.20
2019-03-23T11:38:07.454Z,17.20
2019-03-23T11:41:14.387Z,16.55
2019-03-23T11:44:21.517Z,16.93
2019-03-23T11:47:28.548Z,17.26
2019-03-23T11:50:35.539Z,17.16
2019-03-23T11:53:42.665Z,16.39
2019-03-23T11:56:49.761Z,16.35
2019-03-23T11:59:56.755Z,16.65
2019-03-23T12:03:03.631Z,17.06
2019-03-23T12:06:11.474Z,15.96
2019-03-23T12:09:18.516Z,16.20
2019-03-23T12:12:25.402Z,16.04
2019-03-23T12:15:32.459Z,16.23
2019-03-23T12:18:39.575Z,16.32
2019-03-23T12:21:50.752Z,15.22
2019-03-23T12:24:57.645Z,15.82
2019-03-23T12:28:04.538Z,14.83
2019-03-23T12:31:11.595Z,15.67
2019-03-23T12:34:18.601Z,14.89
2019-03-23T12:37:26.013Z,15.34
2019-03-23T12:40:36.391Z,15.93
2019-03-23T12:43:43.228Z,16.05
2019-03-23T12:46:50.324Z,15.51
2019-03-23T12:49:57.320Z,16.26
2019-03-23T12:53:04.191Z,15.83
2019-03-23T12:56:12.499Z,15.78
2019-03-23T12:59:19.527Z,16.76
2019-03-23T13:02:26.638Z,15.67
2019-03-23T13:05:33.661Z,16.35
2019-03-23T13:08:43.591Z,16.89
2019-03-23T13:11:52.102Z,15.88
2019-03-23T13:14:59.123Z,15.56
2019-03-23T13:18:06.033Z,14.32
2019-03-23T13:21:13.125Z,13.52
2019-03-23T13:24:20.116Z,13.52
2019-03-23T13:27:28.540Z,14.07
2019-03-23T13:30:35.556Z,12.90
2019-03-23T13:33:50.387Z,12.42
2019-03-23T13:37:00.365Z,12.54
2019-03-23T13:40:13.273Z,12.02
2019-03-23T13:43:20.192Z,12.05
2019-03-23T13:46:27.113Z,12.16
2019-03-23T13:49:34.142Z,11.75
2019-03-23T13:52:41.162Z,11.75
2019-03-23T13:55:48.073Z,11.88
2019-03-23T13:58:55.136Z,11.97
2019-03-23T14:02:02.212Z,11.97
2019-03-23T14:05:16.039Z,12.07
2019-03-23T14:08:18.129Z,12.58
2019-03-23T14:11:25.098Z,12.99
2019-03-23T14:14:33.403Z,13.13
2019-03-23T14:17:40.465Z,12.82
2019-03-23T14:20:47.453Z,12.88
2019-03-23T14:23:55.463Z,12.92
2019-03-23T14:27:02.359Z,12.90
2019-03-23T14:30:09.535Z,12.97
2019-03-23T14:33:16.421Z,12.79
2019-03-23T14:36:23.454Z,12.60
2019-03-23T14:39:31.246Z,12.55
2019-03-23T14:42:38.569Z,12.43
2019-03-23T14:45:46.249Z,12.42
2019-03-23T14:48:53.715Z,12.37
2019-03-23T14:52:01.055Z,12.51
2019-03-23T14:55:08.264Z,12.06
2019-03-23T14:58:15.068Z,12.06
2019-03-23T15:01:22.053Z,11.85
2019-03-23T15:04:28.980Z,11.69
2019-03-23T15:07:37.041Z,12.09
2019-03-23T15:10:43.973Z,11.95
2019-03-23T15:13:55.024Z,11.51
2019-03-23T15:17:04.496Z,11.20
2019-03-23T15:20:13.023Z,11.16
2019-03-23T15:23:19.929Z,10.95
2019-03-23T15:26:26.948Z,10.63
2019-03-23T15:29:33.939Z,10.69
2019-03-23T15:32:41.189Z,10.52
2019-03-23T15:35:48.978Z,10.40
2019-03-23T15:38:59.511Z,10.31
2019-03-23T15:42:06.515Z,10.31
2019-03-23T15:45:14.470Z,10.26
2019-03-23T15:48:23.148Z,10.29
2019-03-23T15:51:30.303Z,10.09
2019-03-23T15:54:37.675Z,10.21
2019-03-23T15:57:44.725Z,10.09
2019-03-23T16:00:51.597Z,10.16
2019-03-23T16:04:02.307Z,9.91
2019-03-23T16:07:12.632Z,9.80
2019-03-23T16:10:19.848Z,9.70
2019-03-23T16:13:27.321Z,9.70
2019-03-23T16:16:34.267Z,9.59
2019-03-23T16:19:41.386Z,9.40
2019-03-23T16:22:48.385Z,9.44
2019-03-23T16:25:55.257Z,9.29
2019-03-23T16:29:02.210Z,9.32
2019-03-23T16:32:12.229Z,9.12
2019-03-23T16:35:19.579Z,9.07
2019-03-23T16:38:29.086Z,8.86
2019-03-23T16:41:36.529Z,8.81
2019-03-23T16:44:44.529Z,8.79
2019-03-23T16:47:56.567Z,8.74
2019-03-23T16:51:05.133Z,8.62
2019-03-23T16:54:12.218Z,8.67
2019-03-23T16:57:19.333Z,8.57
2019-03-23T17:00:37.161Z,8.60
2019-03-23T17:03:44.244Z,8.50
2019-03-23T17:06:51.661Z,8.39
2019-03-23T17:09:58.861Z,8.34
2019-03-23T17:13:06.015Z,8.29
2019-03-23T17:16:13.492Z,8.26
2019-03-23T17:19:20.662Z,8.23
2019-03-23T17:22:28.008Z,8.18
2019-03-23T17:25:37.644Z,8.11
2019-03-23T17:28:48.930Z,8.08
2019-03-23T17:31:54.824Z,8.03
2019-03-23T17:35:02.013Z,8.00
2019-03-23T17:38:12.570Z,7.99
2019-03-23T17:41:19.761Z,7.90
2019-03-23T17:44:26.635Z,7.85
2019-03-23T17:47:33.674Z,7.87
2019-03-23T17:50:42.509Z,7.83
2019-03-23T17:53:58.235Z,7.89
2019-03-23T17:56:58.211Z,7.76
2019-03-23T18:00:54.159Z,7.71
2019-03-23T18:04:09.607Z,7.63
2019-03-23T18:07:17.363Z,7.60
2019-03-23T18:10:24.594Z,7.58
2019-03-23T18:13:31.790Z,7.57
2019-03-23T18:16:39.238Z,7.52
2019-03-23T18:19:46.325Z,7.47
2019-03-23T18:22:53.176Z,7.43
2019-03-23T18:26:00.458Z,7.03
2019-03-23T18:29:07.776Z,7.34
2019-03-23T18:32:15.048Z,7.37
2019-03-23T18:35:22.148Z,7.37
2019-03-23T18:38:30.497Z,7.32
2019-03-23T18:41:37.447Z,7.31
2019-03-23T18:44:44.395Z,7.24
2019-03-23T18:47:51.336Z,7.18
2019-03-23T18:50:58.598Z,7.12
2019-03-23T18:54:06.082Z,7.13
2019-03-23T18:57:13.085Z,7.10
2019-03-23T19:00:33.122Z,7.11
2019-03-23T19:03:41.826Z,7.16
2019-03-23T19:06:50.994Z,7.11
2019-03-23T19:09:57.990Z,7.02
2019-03-23T19:13:05.829Z,6.98
2019-03-23T19:16:14.750Z,6.93
2019-03-23T19:19:25.458Z,6.94
2019-03-23T19:22:32.322Z,6.84
2019-03-23T19:25:40.349Z,6.87
2019-03-23T19:28:47.375Z,6.84
2019-03-23T19:31:56.229Z,6.78
2019-03-23T19:35:13.454Z,6.79
2019-03-23T19:38:22.360Z,6.73
2019-03-23T19:41:30.893Z,6.70
2019-03-23T19:44:40.252Z,6.71
2019-03-23T19:47:47.243Z,6.64
2019-03-23T19:50:54.255Z,6.69
2019-03-23T19:54:01.427Z,6.60
2019-03-23T19:57:08.430Z,6.64
2019-03-23T20:00:18.679Z,6.58
2019-03-23T20:03:25.586Z,6.53
2019-03-23T20:06:32.664Z,6.54
2019-03-23T20:09:41.082Z,6.52
2019-03-23T20:12:49.648Z,6.46
2019-03-23T20:15:56.568Z,6.04
2019-03-23T20:19:04.031Z,6.37
2019-03-23T20:22:11.125Z,6.33
2019-03-23T20:25:18.091Z,6.33
2019-03-23T20:28:25.163Z,6.38
2019-03-23T20:31:33.948Z,6.26
2019-03-23T20:34:43.290Z,6.26
2019-03-23T20:37:50.204Z,6.25
2019-03-23T20:40:57.226Z,6.26
2019-03-23T20:44:09.529Z,6.26
2019-03-23T20:47:13.686Z,6.09
2019-03-23T20:50:20.717Z,6.09
2019-03-23T20:53:27.676Z,6.11
2019-03-23T20:56:36.181Z,6.05
2019-03-23T20:59:43.178Z,6.03
2019-03-23T21:02:50.115Z,6.03
2019-03-23T21:05:58.428Z,6.01
2019-03-23T21:09:07.574Z,5.98
2019-03-23T21:12:14.642Z,6.00
2019-03-23T21:15:23.772Z,5.91
2019-03-23T21:18:32.918Z,5.92
2019-03-23T21:21:39.511Z,5.92
2019-03-23T21:24:52.045Z,5.44
2019-03-23T21:27:58.979Z,5.79
2019-03-23T21:31:08.671Z,5.83
2019-03-23T21:34:19.350Z,5.79
2019-03-23T21:37:29.664Z,5.74
2019-03-23T21:40:45.535Z,5.73
2019-03-23T21:43:55.361Z,5.88
2019-03-23T21:47:02.812Z,5.86
2019-03-23T21:50:11.500Z,5.78
2019-03-23T21:53:18.462Z,5.79
2019-03-23T21:56:25.286Z,5.73
2019-03-23T21:59:32.497Z,5.77
2019-03-23T22:02:39.382Z,5.77
2019-03-23T22:05:46.378Z,5.75
2019-03-23T22:08:53.456Z,5.70
2019-03-23T22:12:00.595Z,5.70
2019-03-23T22:15:08.707Z,5.69
2019-03-23T22:18:15.655Z,5.62
2019-03-23T22:21:26.203Z,5.61
2019-03-23T22:24:36.258Z,5.59
2019-03-23T22:27:49.993Z,5.63
2019-03-23T22:30:57.505Z,5.59
2019-03-23T22:34:06.125Z,5.52
2019-03-23T22:37:13.433Z,5.51
2019-03-23T22:40:21.430Z,5.54
2019-03-23T22:43:28.334Z,5.57
2019-03-23T22:46:35.632Z,5.60
2019-03-23T22:49:43.263Z,5.52
2019-03-23T22:52:50.106Z,5.52
2019-03-23T22:55:57.694Z,5.50
2019-03-23T22:59:04.620Z,5.48
2019-03-23T23:02:14.188Z,5.51
2019-03-23T23:05:23.873Z,5.46
2019-03-23T23:08:33.774Z,5.44
2019-03-23T23:11:40.870Z,5.41
2019-03-23T23:14:49.464Z,5.48
2019-03-23T23:17:56.399Z,5.39
2019-03-23T23:21:03.304Z,5.33
2019-03-23T23:24:10.250Z,5.33
2019-03-23T23:27:17.245Z,5.24
2019-03-23T23:30:24.194Z,5.27
2019-03-23T23:33:31.415Z,5.11
2019-03-23T23:36:38.352Z,5.19
2019-03-23T23:39:45.374Z,5.08
2019-03-23T23:42:54.534Z,5.14
2019-03-23T23:46:01.400Z,5.10
2019-03-23T23:49:08.251Z,5.10
2019-03-23T23:52:16.182Z,5.03
2019-03-23T23:55:23.048Z,5.04
2019-03-23T23:58:30.037Z,4.91
